Ms Folla 2 — LLPD — position and weather

sailwx.info

Track history (hours):
 
Tides and Currents Weather Stations Pressure Air Temp Water Temp Dewpoint Dewpoint Depression Visibility Wind Speed Wind Dir Waves Ship Positions

Ms Folla 2

Last reported at 2016-Aug-24 09:34 UTC. Time now 2016-Aug-24 10:19 UTC.
Position N 64°51' E 011°17'.

Length 52 m; draft 5.5 m.

Type: Ship. MMSI: 258253000.

Date/timePositionNaut miles runAvg speedWind from/ knotsBaromVisibWave heightAir tempDewpointWater temp
2016-Aug-24 09:34N 64°51' E 011°17'0 0.0
2016-Aug-24 08:34N 64°51' E 011°17'0 0.0
2016-Aug-24 07:33N 64°51' E 011°17'1 1.0
2016-Aug-24 06:34N 64°52' E 011°15'0 0.0
2016-Aug-24 04:34N 64°52' E 011°14'0 0.0
2016-Aug-24 03:34N 64°52' E 011°14'0 0.0
2016-Aug-24 02:34N 64°52' E 011°14'1 0.7
2016-Aug-24 01:33N 64°52' E 011°16'1010.5
2016-Aug-24 00:34N 64°58' E 011°36'2 1.9
2016-Aug-23 23:34N 64°60' E 011°37'1210.4
2016-Aug-23 22:27N 65°09' E 011°54'4 1.0
2016-Aug-23 18:18N 65°12' E 011°59'62 9.2
2016-Aug-23 11:33N 66°13' E 012°28'1111.2
2016-Aug-23 10:33N 66°23' E 012°42'3510.9
2016-Aug-23 07:21N 66°53' E 013°24'910.8
2016-Aug-23 06:33N 67°00' E 013°38'1110.5
2016-Aug-23 05:31N 67°05' E 014°04'0 0.0
2016-Aug-23 02:27N 67°04' E 014°04'7 7.2
2016-Aug-23 01:32N 67°02' E 013°48'10 8.5
2016-Aug-23 00:25N 66°56' E 013°30'3 0.4
2016-Aug-22 17:33N 66°58' E 013°31'1111.5
2016-Aug-22 16:33N 67°05' E 013°55'1111.3
2016-Aug-22 15:33N 67°14' E 014°10'1111.5
2016-Aug-22 14:33N 67°24' E 014°26'1411.9
2016-Aug-22 13:21N 67°38' E 014°30'81 5.1
2016-Aug-21 21:33N 68°43' E 016°42'2611.7
2016-Aug-21 19:19N 69°04' E 017°23'911.3
2016-Aug-21 18:33N 69°08' E 017°44'9 9.0
2016-Aug-21 17:33N 69°16' E 017°58'2 0.2
2016-Aug-21 09:33N 69°18' E 017°58'4 4.2
2016-Aug-21 08:33N 69°14' E 017°58'6 5.6
2016-Aug-21 07:33N 69°09' E 017°50'1511.4
2016-Aug-21 06:13N 69°00' E 017°15'105 5.2
2016-Aug-20 10:08N 67°41' E 014°06'711.3
2016-Aug-20 09:33N 67°35' E 014°14'1111.4
2016-Aug-20 08:33N 67°25' E 014°27'8 7.8
2016-Aug-20 07:34N 67°17' E 014°24'8 8.2
2016-Aug-20 06:33N 67°12' E 014°08'1111.1
2016-Aug-20 05:33N 67°03' E 013°51'1110.3
2016-Aug-20 04:26N 66°55' E 013°29'14 7.4
2016-Aug-20 02:29N 66°42' E 013°15'1110.5
2016-Aug-20 01:28N 66°33' E 013°01'6 6.9
2016-Aug-20 00:33N 66°27' E 012°59'21 8.9
2016-Aug-19 22:09N 66°06' E 012°44'47 8.3
2016-Aug-19 16:33N 65°22' E 012°05'1111.1
2016-Aug-19 15:33N 65°12' E 011°53'1111.2
2016-Aug-19 14:33N 65°02' E 011°43'1110.8
2016-Aug-19 13:33N 64°55' E 011°24'1110.7
2016-Aug-19 12:32N 64°47' E 011°05'1010.4
2016-Aug-19 11:33N 64°38' E 011°13'2 0.1
2016-Aug-18 16:04N 64°36' E 011°16'5 9.7
2016-Aug-18 15:33N 64°40' E 011°07'1010.0
2016-Aug-18 14:32N 64°50' E 011°11'2 2.5
2016-Aug-18 13:33N 64°52' E 011°15'7 6.8
2016-Aug-18 12:33N 64°57' E 011°23'9 9.2
2016-Aug-18 11:33N 65°00' E 011°02'0 0.0
2016-Aug-18 10:33N 65°00' E 011°02'1 0.6
2016-Aug-18 09:33N 65°00' E 011°04'1 1.3
2016-Aug-18 08:33N 64°60' E 011°06'1111.3
2016-Aug-18 07:34N 64°59' E 011°33'1 1.0
2016-Aug-18 06:33N 64°59' E 011°35'1111.0
2016-Aug-18 05:34N 65°08' E 011°51'12 2.3
2016-Aug-18 00:20N 65°10' E 012°20'7 9.2
2016-Aug-17 23:32N 65°12' E 012°04'51 9.7
2016-Aug-17 18:13N 66°03' E 012°17'6 9.1
2016-Aug-17 17:32N 66°09' E 012°24'1111.5
2016-Aug-17 16:33N 66°20' E 012°23'1211.7
2016-Aug-17 15:33N 66°30' E 012°36'1411.8
2016-Aug-17 14:24N 66°42' E 012°56'18 2.5
2016-Aug-17 07:18N 66°51' E 013°34'811.3
2016-Aug-17 06:33N 66°59' E 013°30'1211.8
2016-Aug-17 05:34N 67°11' E 013°39'1211.6
2016-Aug-17 04:33N 67°20' E 013°56'1211.5
2016-Aug-17 03:33N 67°30' E 014°11'1211.6
2016-Aug-17 02:30N 67°42' E 014°23'80 2.0
2016-Aug-15 09:30N 68°43' E 016°42'1510.8
2016-Aug-15 08:04N 68°56' E 017°05'1111.1
2016-Aug-15 07:07N 69°04' E 017°23'611.3
2016-Aug-15 06:33N 69°07' E 017°38'  
Track history (hours):
 
Tides and Currents Weather Stations Pressure Air Temp Water Temp Dewpoint Dewpoint Depression Visibility Wind Speed Wind Dir Waves Ship Positions

Ms Folla 2

Last reported at 2016-Aug-24 09:34 UTC. Time now 2016-Aug-24 10:19 UTC.
Position N 64°51' E 011°17'.

Length 52 m; draft 5.5 m.

Type: Ship. MMSI: 258253000.

Date/timePositionNaut miles runAvg speedWind from/ knotsBaromVisibWave heightAir tempDewpointWater temp
2016-Aug-24 09:34N 64°51' E 011°17'0 0.0
2016-Aug-24 08:34N 64°51' E 011°17'0 0.0
2016-Aug-24 07:33N 64°51' E 011°17'1 1.0
2016-Aug-24 06:34N 64°52' E 011°15'0 0.0
2016-Aug-24 04:34N 64°52' E 011°14'0 0.0
2016-Aug-24 03:34N 64°52' E 011°14'0 0.0
2016-Aug-24 02:34N 64°52' E 011°14'1 0.7
2016-Aug-24 01:33N 64°52' E 011°16'1010.5
2016-Aug-24 00:34N 64°58' E 011°36'2 1.9
2016-Aug-23 23:34N 64°60' E 011°37'1210.4
2016-Aug-23 22:27N 65°09' E 011°54'4 1.0
2016-Aug-23 18:18N 65°12' E 011°59'62 9.2
2016-Aug-23 11:33N 66°13' E 012°28'1111.2
2016-Aug-23 10:33N 66°23' E 012°42'3510.9
2016-Aug-23 07:21N 66°53' E 013°24'910.8
2016-Aug-23 06:33N 67°00' E 013°38'1110.5
2016-Aug-23 05:31N 67°05' E 014°04'0 0.0
2016-Aug-23 02:27N 67°04' E 014°04'7 7.2
2016-Aug-23 01:32N 67°02' E 013°48'10 8.5
2016-Aug-23 00:25N 66°56' E 013°30'3 0.4
2016-Aug-22 17:33N 66°58' E 013°31'1111.5
2016-Aug-22 16:33N 67°05' E 013°55'1111.3
2016-Aug-22 15:33N 67°14' E 014°10'1111.5
2016-Aug-22 14:33N 67°24' E 014°26'1411.9
2016-Aug-22 13:21N 67°38' E 014°30'81 5.1
2016-Aug-21 21:33N 68°43' E 016°42'2611.7
2016-Aug-21 19:19N 69°04' E 017°23'911.3
2016-Aug-21 18:33N 69°08' E 017°44'9 9.0
2016-Aug-21 17:33N 69°16' E 017°58'2 0.2
2016-Aug-21 09:33N 69°18' E 017°58'4 4.2
2016-Aug-21 08:33N 69°14' E 017°58'6 5.6
2016-Aug-21 07:33N 69°09' E 017°50'1511.4
2016-Aug-21 06:13N 69°00' E 017°15'105 5.2
2016-Aug-20 10:08N 67°41' E 014°06'711.3
2016-Aug-20 09:33N 67°35' E 014°14'1111.4
2016-Aug-20 08:33N 67°25' E 014°27'8 7.8
2016-Aug-20 07:34N 67°17' E 014°24'8 8.2
2016-Aug-20 06:33N 67°12' E 014°08'1111.1
2016-Aug-20 05:33N 67°03' E 013°51'1110.3
2016-Aug-20 04:26N 66°55' E 013°29'14 7.4
2016-Aug-20 02:29N 66°42' E 013°15'1110.5
2016-Aug-20 01:28N 66°33' E 013°01'6 6.9
2016-Aug-20 00:33N 66°27' E 012°59'21 8.9
2016-Aug-19 22:09N 66°06' E 012°44'47 8.3
2016-Aug-19 16:33N 65°22' E 012°05'1111.1
2016-Aug-19 15:33N 65°12' E 011°53'1111.2
2016-Aug-19 14:33N 65°02' E 011°43'1110.8
2016-Aug-19 13:33N 64°55' E 011°24'1110.7
2016-Aug-19 12:32N 64°47' E 011°05'1010.4
2016-Aug-19 11:33N 64°38' E 011°13'2 0.1
2016-Aug-18 16:04N 64°36' E 011°16'5 9.7
2016-Aug-18 15:33N 64°40' E 011°07'1010.0
2016-Aug-18 14:32N 64°50' E 011°11'2 2.5
2016-Aug-18 13:33N 64°52' E 011°15'7 6.8
2016-Aug-18 12:33N 64°57' E 011°23'9 9.2
2016-Aug-18 11:33N 65°00' E 011°02'0 0.0
2016-Aug-18 10:33N 65°00' E 011°02'1 0.6
2016-Aug-18 09:33N 65°00' E 011°04'1 1.3
2016-Aug-18 08:33N 64°60' E 011°06'1111.3
2016-Aug-18 07:34N 64°59' E 011°33'1 1.0
2016-Aug-18 06:33N 64°59' E 011°35'1111.0
2016-Aug-18 05:34N 65°08' E 011°51'12 2.3
2016-Aug-18 00:20N 65°10' E 012°20'7 9.2
2016-Aug-17 23:32N 65°12' E 012°04'51 9.7
2016-Aug-17 18:13N 66°03' E 012°17'6 9.1
2016-Aug-17 17:32N 66°09' E 012°24'1111.5
2016-Aug-17 16:33N 66°20' E 012°23'1211.7
2016-Aug-17 15:33N 66°30' E 012°36'1411.8
2016-Aug-17 14:24N 66°42' E 012°56'18 2.5
2016-Aug-17 07:18N 66°51' E 013°34'811.3
2016-Aug-17 06:33N 66°59' E 013°30'1211.8
2016-Aug-17 05:34N 67°11' E 013°39'1211.6
2016-Aug-17 04:33N 67°20' E 013°56'1211.5
2016-Aug-17 03:33N 67°30' E 014°11'1211.6
2016-Aug-17 02:30N 67°42' E 014°23'80 2.0
2016-Aug-15 09:30N 68°43' E 016°42'1510.8
2016-Aug-15 08:04N 68°56' E 017°05'1111.1
2016-Aug-15 07:07N 69°04' E 017°23'611.3
2016-Aug-15 06:33N 69°07' E 017°38'  

Dump ship's entire track history